< < Back
Terminal Aerodrome Forecast


Current Version              Previous Versions:   1  2  3  4  5  6  7  8  9  

Terminal Aerodrome Forecast

102
FTUS44 KMRX 121121
TAFCHA
TAF
KCHA 121121Z 1212/1312 VRB04KT P6SM BKN100
     FM121900 32009KT P6SM BKN040
     FM130000 34012KT P6SM BKN035=

Latest METAR

306
SAUS80 KWBC 130200
MTRCHA
METAR KCHA 130153Z 33009KT 10SM FEW070 SCT150 04/M03 A3024 RMK AO2
SLP245 T00441028


USA.gov is the U.S. government's official web portal to all federal, state and local government web resources and services.